KHFF

Mackall AAF Airport

Camp Mackall, North Carolina, USA
METAR KHFF 141656Z AUTO 06008KT 4SM RA OVC004 09/08 A3017 RMK AO2 SLP233 P0012 T00880084
Observed Flight Rules
Dec-14 @ 16:56 UTC (8 minutes ago) Instrument Flight Rules
Wind Visibility Clouds Conditions
60° at 8 knots 4 miles
  • Overcast at 400' AGL
  • Rain
Temperatures Readings Precipitation
Current 9°C / 48°F
Dewpoint 8°C / 46°F
Humidity 94%
Altimeter 30.17" Hg
Pressure 1023.3 hPa
Elevation 115
Current Rain 0.12
METAR KHFF 141656Z AUTO 06008KT 4SM RA OVC004 09/08 A3017 RMK AO2 SLP233 P0012 T00880084
Observed Flight Rules
Dec-14 @ 16:56 UTC
(8 minutes ago)
LIFR
Wind Visibility
60° at 8 knots 4 miles
Clouds
  • Overcast at 400' AGL
Conditions
  • Rain
Temperature Dewpoint
9°C / 48°F 8°C / 46°F
Humidity Altimeter Pressure
94% 30.17" Hg 1023.3 hPa
Current Rain
0.12